Pagina principale
METAR-TAF:

METAR-TAF

Aeroporti :

Bolzano, Italia

latitudine: 46-28N, longitudine: 011-20E, altezza: 262 m

Osservazione

Il bollettino è stato emesso 55 minuti fa, alle 05:50 UTC
Vento calmo
Temperature 14°C
Umidità 82%
Pressione 1006 hPa
Visibilità 10 km o più
Poco nuvoloso ad un'altezza di 6000 ft
Nuvoloso ad un'altezza di 8000 ft

METAR: LIPB 260550Z 00000KT 9999 FEW060 BKN080 14/11 Q1006

Ora: 08:45 (06:45 UTC)

Previsione

Il bollettino è stato emesso 1 ora e 45 minuti fa, alle 05:00 UTC
Previsione valida dal 26 alle 06 UTC al 27 alle 06 UTC
Vento 5 kt da direzioni variabili
Visibilità 10 km o più
Nubi sparse ad un'altezza di 5000 ft
Temporaneamente
dal 26 alle 12 UTC al 26 alle 16 UTC
rovesci di pioggia

TAF: LIPB 260500Z 2606/2706 VRB05KT 9999 SCT050 TEMPO 2612/2616 SHRA

Osservazioni e previsioni meteorologiche di più di 4000 aeroporti (messaggi METAR e TAF).

Le stazioni disponibili sono rappresentate dai dischi gialli e rossi sulla carta.

Puntare il mouse per vedere il nome della stazione.

Clicca sopra per visualizzare le osservazioni e previsioni meteorologiche.

Per cambiare la mappa : fare clic sui pulsanti verdi con una croce nera per ingrandire, il pulsante verde con un trattino per diminuire, o sulla freccia verde per le mappe adiacenti.


METAR-TAF: